createdAt,value
2018-06-13T00:00:43.673Z,65.59
2018-06-13T00:03:14.726Z,65.75
2018-06-13T00:05:45.883Z,65.92
2018-06-13T00:08:17.094Z,65.80
2018-06-13T00:10:48.138Z,65.57
2018-06-13T00:13:19.268Z,64.87
2018-06-13T00:15:50.222Z,64.92
2018-06-13T00:18:21.136Z,64.97
2018-06-13T00:20:52.667Z,64.70
2018-06-13T00:23:23.456Z,64.54
2018-06-13T00:25:54.624Z,64.33
2018-06-13T00:28:25.590Z,64.52
2018-06-13T00:30:56.674Z,65.45
2018-06-13T00:33:27.831Z,65.29
2018-06-13T00:35:58.971Z,65.25
2018-06-13T00:38:29.981Z,65.18
2018-06-13T00:41:01.623Z,64.77
2018-06-13T00:43:32.434Z,64.89
2018-06-13T00:46:03.438Z,64.05
2018-06-13T00:48:34.482Z,64.22
2018-06-13T00:51:05.570Z,64.13
2018-06-13T00:53:36.683Z,63.09
2018-06-13T00:56:24.743Z,64.22
2018-06-13T00:58:55.874Z,64.24
2018-06-13T01:01:26.850Z,63.86
2018-06-13T01:03:57.943Z,62.71
2018-06-13T01:06:29.182Z,62.20
2018-06-13T01:09:00.322Z,62.82
2018-06-13T01:11:31.459Z,63.11
2018-06-13T01:14:02.519Z,62.85
2018-06-13T01:16:33.496Z,63.19
2018-06-13T01:19:05.594Z,63.17
2018-06-13T01:21:36.380Z,63.05
2018-06-13T01:24:07.349Z,62.13
2018-06-13T01:26:38.228Z,62.35
2018-06-13T01:29:09.328Z,62.32
2018-06-13T01:31:40.411Z,62.73
2018-06-13T01:34:10.927Z,63.78
2018-06-13T01:36:41.769Z,63.95
2018-06-13T01:39:12.821Z,64.15
2018-06-13T01:41:43.852Z,64.25
2018-06-13T01:44:14.830Z,64.12
2018-06-13T01:46:45.926Z,63.53
2018-06-13T01:49:17.072Z,63.98
2018-06-13T01:51:47.621Z,64.63
2018-06-13T01:54:18.593Z,64.47
2018-06-13T01:56:49.490Z,64.13
2018-06-13T01:59:20.527Z,63.40
2018-06-13T02:01:51.768Z,63.79
2018-06-13T02:04:22.942Z,63.58
2018-06-13T02:06:54.050Z,64.13
2018-06-13T02:09:25.328Z,64.59
2018-06-13T02:11:56.690Z,64.49
2018-06-13T02:14:27.860Z,64.86
2018-06-13T02:16:59.240Z,65.10
2018-06-13T02:19:30.309Z,65.57
2018-06-13T02:22:01.366Z,65.41
2018-06-13T02:24:32.328Z,65.10
2018-06-13T02:27:03.419Z,65.26
2018-06-13T02:29:34.427Z,64.95
2018-06-13T02:32:05.490Z,65.31
2018-06-13T02:34:36.545Z,65.53
2018-06-13T02:37:07.656Z,65.69
2018-06-13T02:39:38.691Z,65.65
2018-06-13T02:42:09.681Z,65.99
2018-06-13T02:44:40.972Z,65.22
2018-06-13T02:47:11.929Z,65.59
2018-06-13T02:49:42.992Z,66.17
2018-06-13T02:52:14.120Z,66.56
2018-06-13T02:54:46.317Z,65.72
2018-06-13T02:57:16.888Z,66.14
2018-06-13T02:59:47.749Z,66.08
2018-06-13T03:02:25.377Z,66.14
2018-06-13T03:04:57.274Z,67.09
2018-06-13T03:07:28.255Z,66.85
2018-06-13T03:10:30.165Z,66.88
2018-06-13T03:13:01.195Z,67.20
2018-06-13T03:15:32.365Z,67.24
2018-06-13T03:18:04.226Z,66.45
2018-06-13T03:20:35.427Z,66.73
2018-06-13T03:23:06.388Z,66.55
2018-06-13T03:25:37.445Z,66.77
2018-06-13T03:28:08.565Z,66.65
2018-06-13T03:30:39.676Z,65.81
2018-06-13T03:33:10.807Z,66.59
2018-06-13T03:35:42.007Z,66.00
2018-06-13T03:38:13.061Z,66.39
2018-06-13T03:40:44.410Z,66.80
2018-06-13T03:43:15.534Z,66.86
2018-06-13T03:45:47.667Z,66.85
2018-06-13T03:48:18.717Z,66.14
2018-06-13T03:50:49.291Z,66.14
2018-06-13T03:53:20.435Z,66.31
2018-06-13T03:55:52.458Z,66.61
2018-06-13T03:58:23.840Z,65.75
2018-06-13T04:00:54.974Z,66.17
2018-06-13T04:03:26.011Z,65.86
2018-06-13T04:05:57.034Z,66.97
2018-06-13T04:08:28.105Z,66.27
2018-06-13T04:10:59.078Z,66.49
2018-06-13T04:13:30.147Z,66.72
2018-06-13T04:16:01.805Z,66.18
2018-06-13T04:18:32.900Z,65.94
2018-06-13T04:21:04.203Z,66.57
2018-06-13T04:23:35.142Z,66.50
2018-06-13T04:26:07.605Z,66.01
2018-06-13T04:28:38.804Z,66.35
2018-06-13T04:31:10.027Z,66.39
2018-06-13T04:33:41.116Z,65.74
2018-06-13T04:36:12.214Z,66.11
2018-06-13T04:38:43.350Z,66.43
2018-06-13T04:41:14.318Z,66.94
2018-06-13T04:43:45.961Z,66.00
2018-06-13T04:46:18.048Z,65.54
2018-06-13T04:48:49.287Z,65.70
2018-06-13T04:51:20.439Z,65.73
2018-06-13T04:53:51.420Z,65.77
2018-06-13T04:56:22.486Z,65.25
2018-06-13T04:58:53.545Z,65.74
2018-06-13T05:01:25.800Z,65.90
2018-06-13T05:03:57.854Z,66.15
2018-06-13T05:06:30.069Z,67.68
2018-06-13T05:09:01.125Z,67.46
2018-06-13T05:11:32.246Z,67.33
2018-06-13T05:14:03.515Z,66.80
2018-06-13T05:16:34.384Z,67.03
2018-06-13T05:19:06.427Z,66.96
2018-06-13T05:21:37.463Z,68.15
2018-06-13T05:24:08.508Z,67.77
2018-06-13T05:26:39.481Z,68.23
2018-06-13T05:29:10.514Z,67.66
2018-06-13T05:31:41.326Z,68.08
2018-06-13T05:34:12.280Z,67.19
2018-06-13T05:36:44.242Z,67.45
2018-06-13T05:39:15.303Z,67.60
2018-06-13T05:41:46.443Z,67.43
2018-06-13T05:44:17.545Z,68.04
2018-06-13T05:46:48.622Z,67.89
2018-06-13T05:49:20.329Z,67.30
2018-06-13T05:51:51.361Z,66.55
2018-06-13T05:54:22.403Z,67.19
2018-06-13T05:56:53.637Z,68.07
2018-06-13T05:59:25.238Z,68.11
2018-06-13T06:01:57.232Z,68.46
2018-06-13T06:04:27.756Z,68.06
2018-06-13T06:06:58.658Z,68.77
2018-06-13T06:12:09.302Z,67.20
2018-06-13T06:14:40.443Z,67.26
2018-06-13T06:17:11.360Z,66.52
2018-06-13T06:19:42.014Z,66.91
2018-06-13T06:22:12.797Z,67.83
2018-06-13T06:24:43.697Z,66.34
2018-06-13T06:27:14.862Z,64.83
2018-06-13T06:29:45.796Z,64.96
2018-06-13T06:32:16.801Z,64.41
2018-06-13T06:34:47.836Z,64.70
2018-06-13T06:37:18.644Z,64.41
2018-06-13T06:39:49.628Z,63.91
2018-06-13T06:42:20.771Z,64.87
2018-06-13T06:44:51.896Z,63.86
2018-06-13T06:47:22.930Z,63.06
2018-06-13T06:49:54.206Z,61.17
2018-06-13T06:52:26.685Z,60.58
2018-06-13T06:54:57.782Z,60.34
2018-06-13T06:57:28.912Z,62.24
2018-06-13T06:59:59.975Z,63.13
2018-06-13T07:02:30.797Z,64.40
2018-06-13T07:05:01.755Z,65.63
2018-06-13T07:07:33.265Z,65.83
2018-06-13T07:10:04.305Z,65.55
2018-06-13T07:12:35.639Z,66.48
2018-06-13T07:15:06.943Z,66.94
2018-06-13T07:17:38.148Z,66.32
2018-06-13T07:20:09.102Z,66.43
2018-06-13T07:25:18.924Z,65.71
2018-06-13T07:27:49.852Z,65.69
2018-06-13T07:30:21.139Z,65.33
2018-06-13T07:32:52.129Z,64.87
2018-06-13T07:35:23.316Z,64.91
2018-06-13T07:37:54.522Z,63.29
2018-06-13T07:40:26.291Z,64.16
2018-06-13T07:42:57.009Z,63.41
2018-06-13T07:45:27.627Z,63.59
2018-06-13T07:47:58.609Z,63.45
2018-06-13T07:50:29.602Z,62.40
2018-06-13T07:53:01.214Z,61.98
2018-06-13T07:55:32.453Z,62.19
2018-06-13T07:58:03.524Z,61.13
2018-06-13T08:00:34.667Z,61.25
2018-06-13T08:03:06.095Z,60.42
2018-06-13T08:05:37.155Z,59.25
2018-06-13T08:08:08.268Z,58.25
2018-06-13T08:10:39.107Z,58.12
2018-06-13T08:13:10.081Z,56.99
2018-06-13T08:15:41.700Z,55.25
2018-06-13T08:18:13.545Z,55.91
2018-06-13T08:20:44.513Z,54.91
2018-06-13T08:23:15.799Z,53.15
2018-06-13T08:25:46.794Z,52.95
2018-06-13T08:28:17.616Z,50.58
2018-06-13T08:30:48.075Z,50.78
2018-06-13T08:33:19.926Z,50.46
2018-06-13T08:35:51.081Z,50.66
2018-06-13T08:38:22.133Z,50.47
2018-06-13T08:40:52.991Z,51.05
2018-06-13T08:43:23.897Z,50.78
2018-06-13T08:45:54.830Z,51.04
2018-06-13T08:48:26.556Z,51.62
2018-06-13T08:50:57.522Z,50.13
2018-06-13T08:53:31.501Z,49.30
2018-06-13T08:56:02.824Z,51.30
2018-06-13T08:58:35.603Z,50.04
2018-06-13T09:01:06.476Z,50.95
2018-06-13T09:03:37.128Z,49.95
2018-06-13T09:06:08.125Z,50.06
2018-06-13T09:08:39.528Z,50.48
2018-06-13T09:11:10.907Z,50.83
2018-06-13T09:13:41.774Z,49.44
2018-06-13T09:16:12.770Z,49.17
2018-06-13T09:18:43.802Z,49.80
2018-06-13T09:21:15.044Z,50.68
2018-06-13T09:23:46.286Z,49.35
2018-06-13T09:26:17.241Z,47.42
2018-06-13T09:28:49.424Z,47.93
2018-06-13T09:31:20.617Z,48.90
2018-06-13T09:33:51.477Z,48.92
2018-06-13T09:36:21.965Z,47.02
2018-06-13T09:38:53.022Z,46.62
2018-06-13T09:41:24.072Z,46.67
2018-06-13T09:43:55.447Z,47.02
2018-06-13T09:46:27.491Z,47.24
2018-06-13T09:48:58.103Z,48.44
2018-06-13T09:51:28.983Z,47.13
2018-06-13T09:54:00.126Z,48.07
2018-06-13T09:56:31.961Z,48.02
2018-06-13T09:59:07.798Z,48.98
2018-06-13T10:01:43.394Z,51.20
2018-06-13T10:04:14.538Z,51.79
2018-06-13T10:06:45.651Z,52.20
2018-06-13T10:09:16.433Z,51.99
2018-06-13T10:11:47.271Z,52.09
2018-06-13T10:14:18.001Z,52.68
2018-06-13T10:16:49.817Z,52.01
2018-06-13T10:19:20.620Z,50.94
2018-06-13T10:21:52.564Z,52.65
2018-06-13T10:24:24.713Z,51.87
2018-06-13T10:26:56.954Z,52.92
2018-06-13T10:29:28.006Z,51.26
2018-06-13T10:31:58.973Z,50.95
2018-06-13T10:34:29.699Z,50.31
2018-06-13T10:37:00.902Z,50.65
2018-06-13T10:39:31.749Z,49.75
2018-06-13T10:42:02.782Z,50.69
2018-06-13T10:44:33.706Z,49.20
2018-06-13T10:47:05.795Z,50.94
2018-06-13T10:49:36.177Z,51.08
2018-06-13T10:52:07.289Z,51.49
2018-06-13T10:54:38.444Z,50.33
2018-06-13T10:57:09.506Z,50.17
2018-06-13T10:59:40.249Z,49.31
2018-06-13T11:02:11.442Z,49.39
2018-06-13T11:04:42.558Z,49.86
2018-06-13T11:07:13.799Z,49.81
2018-06-13T11:09:44.739Z,49.68
2018-06-13T11:12:15.796Z,49.80
2018-06-13T11:14:46.947Z,48.95
2018-06-13T11:17:19.030Z,49.50
2018-06-13T11:19:50.031Z,50.26
2018-06-13T11:22:21.316Z,50.67
2018-06-13T11:24:52.418Z,52.07
2018-06-13T11:27:23.661Z,50.88
2018-06-13T11:29:55.171Z,50.05
2018-06-13T11:32:27.023Z,49.25
2018-06-13T11:34:57.858Z,48.67
2018-06-13T11:37:28.888Z,47.67
2018-06-13T11:40:00.210Z,47.73
2018-06-13T11:42:31.384Z,47.06
2018-06-13T11:45:02.349Z,47.70
2018-06-13T11:47:33.650Z,48.80
2018-06-13T11:50:04.453Z,47.28
2018-06-13T11:52:35.435Z,47.48
2018-06-13T11:55:06.974Z,48.51
2018-06-13T11:57:37.916Z,48.31
2018-06-13T12:00:08.526Z,48.74
2018-06-13T12:02:39.362Z,49.45
2018-06-13T12:05:10.461Z,50.72
2018-06-13T12:07:41.515Z,50.39
2018-06-13T12:10:12.404Z,50.71
2018-06-13T12:12:44.390Z,49.95
2018-06-13T12:15:15.629Z,48.71
2018-06-13T12:17:46.702Z,48.80
2018-06-13T12:20:17.870Z,48.37
2018-06-13T12:22:48.923Z,49.02
2018-06-13T12:25:20.224Z,48.78
2018-06-13T12:27:51.346Z,50.25
2018-06-13T12:30:22.487Z,48.49
2018-06-13T12:32:54.851Z,48.51
2018-06-13T12:35:26.913Z,49.56
2018-06-13T12:37:57.981Z,49.34
2018-06-13T12:40:29.056Z,49.31
2018-06-13T12:43:00.277Z,49.82
2018-06-13T12:45:31.614Z,50.71
2018-06-13T12:48:02.684Z,49.76
2018-06-13T12:50:33.982Z,50.04
2018-06-13T12:53:04.540Z,49.22
2018-06-13T12:55:35.562Z,49.43
2018-06-13T12:58:07.122Z,49.91
2018-06-13T13:00:38.233Z,50.75
2018-06-13T13:03:09.214Z,51.10
2018-06-13T13:05:40.227Z,50.90
2018-06-13T13:08:11.543Z,49.58
2018-06-13T13:10:42.750Z,49.32
2018-06-13T13:13:14.824Z,48.84
2018-06-13T13:15:45.823Z,48.39
2018-06-13T13:18:16.503Z,48.44
2018-06-13T13:20:47.739Z,46.52
2018-06-13T13:23:19.826Z,47.29
2018-06-13T13:25:51.084Z,46.10
2018-06-13T13:28:22.541Z,46.00
2018-06-13T13:30:53.747Z,47.40
2018-06-13T13:33:24.986Z,47.68
2018-06-13T13:35:56.178Z,47.52
2018-06-13T13:38:27.273Z,45.86
2018-06-13T13:40:58.411Z,46.27
2018-06-13T13:43:29.676Z,47.09
2018-06-13T13:46:01.655Z,47.06
2018-06-13T13:48:32.940Z,47.81
2018-06-13T13:51:04.053Z,46.89
2018-06-13T13:53:36.469Z,45.86
2018-06-13T13:56:07.267Z,44.81
2018-06-13T13:58:38.335Z,44.32
2018-06-13T14:01:09.452Z,44.27
2018-06-13T14:03:40.578Z,46.89
2018-06-13T14:06:11.849Z,50.09
2018-06-13T14:08:42.958Z,52.60
2018-06-13T14:11:14.093Z,53.66
2018-06-13T14:13:45.242Z,55.12
2018-06-13T14:16:16.217Z,55.57
2018-06-13T14:18:47.302Z,54.20
2018-06-13T14:21:17.826Z,55.13
2018-06-13T14:23:49.494Z,55.13
2018-06-13T14:26:22.317Z,55.04
2018-06-13T14:28:54.441Z,54.55
2018-06-13T14:31:26.372Z,54.97
2018-06-13T14:33:57.314Z,54.75
2018-06-13T14:36:28.242Z,54.36
2018-06-13T14:38:59.454Z,53.43
2018-06-13T14:41:30.435Z,52.63
2018-06-13T14:44:01.411Z,52.23
2018-06-13T14:46:32.589Z,52.75
2018-06-13T14:49:04.128Z,52.46
2018-06-13T14:51:35.477Z,52.54
2018-06-13T14:54:07.057Z,52.49
2018-06-13T14:56:38.536Z,52.41
2018-06-13T14:59:09.872Z,52.51
2018-06-13T15:01:41.644Z,51.93
2018-06-13T15:04:13.048Z,52.82
2018-06-13T15:06:44.117Z,51.98
2018-06-13T15:09:15.416Z,53.52
2018-06-13T15:11:46.594Z,53.27
2018-06-13T15:14:17.665Z,51.80
2018-06-13T15:16:48.839Z,52.15
2018-06-13T15:19:20.335Z,53.38
2018-06-13T15:21:52.888Z,52.75
2018-06-13T15:24:24.332Z,53.53
2018-06-13T15:26:55.152Z,52.57
2018-06-13T15:29:27.179Z,52.92
2018-06-13T15:31:58.265Z,53.20
2018-06-13T15:34:29.465Z,52.87
2018-06-13T15:37:01.454Z,51.79
2018-06-13T15:39:32.588Z,51.73
2018-06-13T15:42:03.736Z,52.77
2018-06-13T15:44:35.348Z,52.75
2018-06-13T15:47:06.333Z,53.06
2018-06-13T15:49:37.612Z,52.91
2018-06-13T15:52:09.020Z,52.60
2018-06-13T15:54:40.260Z,52.93
2018-06-13T15:57:12.498Z,52.25
2018-06-13T15:59:43.745Z,51.93
2018-06-13T16:02:14.689Z,52.11
2018-06-13T16:04:46.322Z,51.53
2018-06-13T16:07:17.471Z,51.52
2018-06-13T16:09:48.535Z,52.16
2018-06-13T16:12:19.867Z,51.49
2018-06-13T16:14:51.084Z,51.79
2018-06-13T16:17:22.201Z,51.25
2018-06-13T16:19:53.026Z,51.68
2018-06-13T16:22:23.492Z,51.45
2018-06-13T16:24:55.142Z,51.94
2018-06-13T16:27:26.905Z,52.02
2018-06-13T16:29:58.218Z,51.55
2018-06-13T16:32:29.133Z,51.47
2018-06-13T16:35:00.333Z,50.44
2018-06-13T16:37:31.036Z,51.25
2018-06-13T16:40:02.395Z,51.25
2018-06-13T16:42:34.040Z,51.25
2018-06-13T16:45:05.712Z,51.46
2018-06-13T16:47:37.462Z,50.81
2018-06-13T16:50:24.953Z,50.25
2018-06-13T16:53:10.554Z,51.49
2018-06-13T16:55:41.785Z,51.20
2018-06-13T16:58:13.834Z,51.89
2018-06-13T17:00:45.199Z,51.18
2018-06-13T17:03:16.566Z,53.12
2018-06-13T17:05:47.814Z,51.89
2018-06-13T17:08:18.963Z,51.89
2018-06-13T17:10:50.021Z,52.63
2018-06-13T17:13:21.266Z,52.21
2018-06-13T17:15:52.353Z,52.88
2018-06-13T17:18:23.510Z,53.39
2018-06-13T17:20:54.796Z,53.72
2018-06-13T17:23:26.025Z,52.99
2018-06-13T17:25:57.397Z,54.41
2018-06-13T17:28:28.042Z,54.56
2018-06-13T17:30:58.997Z,54.29
2018-06-13T17:33:30.336Z,53.95
2018-06-13T17:36:01.688Z,54.05
2018-06-13T17:38:32.936Z,54.01
2018-06-13T17:41:04.390Z,55.00
2018-06-13T17:43:35.555Z,53.67
2018-06-13T17:46:06.729Z,54.30
2018-06-13T17:48:37.887Z,54.77
2018-06-13T17:51:09.231Z,55.00
2018-06-13T17:53:40.236Z,54.77
2018-06-13T17:56:11.312Z,54.88
2018-06-13T17:58:42.521Z,55.58
2018-06-13T18:01:13.663Z,55.47
2018-06-13T18:03:44.803Z,55.81
2018-06-13T18:06:32.587Z,56.58
2018-06-13T18:09:04.287Z,57.15
2018-06-13T18:11:35.548Z,57.02
2018-06-13T18:14:06.656Z,57.22
2018-06-13T18:16:38.599Z,57.53
2018-06-13T18:19:09.378Z,57.39
2018-06-13T18:21:41.249Z,58.57
2018-06-13T18:24:12.102Z,58.27
2018-06-13T18:26:45.019Z,56.97
2018-06-13T18:29:15.972Z,58.07
2018-06-13T18:31:47.036Z,57.93
2018-06-13T18:34:18.492Z,57.43
2018-06-13T18:36:49.374Z,58.51
2018-06-13T18:39:20.306Z,58.24
2018-06-13T18:41:51.375Z,58.22
2018-06-13T18:44:22.754Z,58.57
2018-06-13T18:46:54.724Z,58.32
2018-06-13T18:49:25.608Z,58.29
2018-06-13T18:51:56.440Z,58.60
2018-06-13T18:54:27.567Z,58.58
2018-06-13T18:56:58.681Z,60.30
2018-06-13T18:59:29.712Z,60.99
2018-06-13T19:02:00.978Z,60.26
2018-06-13T19:04:32.095Z,61.00
2018-06-13T19:07:02.941Z,60.27
2018-06-13T19:09:34.155Z,60.11
2018-06-13T19:12:04.924Z,60.47
2018-06-13T19:14:36.107Z,60.17
2018-06-13T19:17:06.971Z,61.39
2018-06-13T19:19:39.607Z,60.83
2018-06-13T19:22:10.775Z,60.97
2018-06-13T19:24:41.989Z,61.15
2018-06-13T19:27:13.121Z,60.31
2018-06-13T19:29:45.313Z,60.34
2018-06-13T19:32:16.248Z,60.74
2018-06-13T19:34:47.146Z,59.31
2018-06-13T19:37:17.929Z,58.97
2018-06-13T19:39:48.873Z,59.76
2018-06-13T19:42:20.113Z,60.13
2018-06-13T19:44:51.088Z,58.91
2018-06-13T19:47:26.987Z,59.53
2018-06-13T19:49:58.081Z,59.37
2018-06-13T19:52:33.855Z,59.61
2018-06-13T19:55:09.739Z,59.02
2018-06-13T19:57:40.602Z,59.29
2018-06-13T20:00:11.785Z,59.85
2018-06-13T20:02:47.703Z,59.08
2018-06-13T20:05:24.779Z,60.32
2018-06-13T20:07:55.884Z,59.72
2018-06-13T20:10:27.846Z,60.42
2018-06-13T20:13:05.830Z,59.82
2018-06-13T20:15:41.609Z,60.44
2018-06-13T20:18:17.303Z,60.66
2018-06-13T20:20:48.168Z,60.15
2018-06-13T20:23:18.959Z,61.32
2018-06-13T20:25:54.996Z,60.62
2018-06-13T20:28:31.027Z,61.18
2018-06-13T20:31:07.204Z,61.95
2018-06-13T20:33:38.011Z,61.17
2018-06-13T20:36:08.876Z,60.54
2018-06-13T20:38:39.757Z,60.29
2018-06-13T20:41:10.568Z,60.08
2018-06-13T20:43:41.650Z,60.32
2018-06-13T20:46:12.442Z,60.43
2018-06-13T20:48:43.457Z,59.98
2018-06-13T20:51:14.539Z,60.08
2018-06-13T20:53:45.659Z,61.85
2018-06-13T20:56:16.861Z,62.41
2018-06-13T20:58:48.363Z,62.62
2018-06-13T21:01:19.372Z,62.91
2018-06-13T21:03:50.626Z,62.51
2018-06-13T21:06:21.687Z,62.30
2018-06-13T21:08:53.450Z,62.16
2018-06-13T21:11:24.287Z,62.41
2018-06-13T21:13:55.714Z,62.27
2018-06-13T21:16:27.750Z,60.96
2018-06-13T21:18:58.849Z,61.31
2018-06-13T21:21:30.027Z,60.89
2018-06-13T21:24:01.227Z,60.62
2018-06-13T21:26:32.368Z,60.65
2018-06-13T21:29:03.793Z,61.07
2018-06-13T21:31:34.669Z,61.12
2018-06-13T21:34:05.953Z,61.60
2018-06-13T21:36:36.805Z,62.58
2018-06-13T21:39:11.105Z,62.42
2018-06-13T21:41:42.022Z,62.35
2018-06-13T21:44:13.007Z,62.89
2018-06-13T21:46:44.019Z,62.76
2018-06-13T21:49:14.810Z,63.22
2018-06-13T21:51:45.642Z,63.08
2018-06-13T21:54:17.413Z,63.23
2018-06-13T21:56:48.238Z,63.09
2018-06-13T21:59:19.154Z,62.94
2018-06-13T22:01:50.717Z,63.12
2018-06-13T22:04:21.310Z,64.05
2018-06-13T22:06:52.251Z,64.03
2018-06-13T22:09:23.063Z,63.66
2018-06-13T22:11:54.338Z,64.76
2018-06-13T22:14:26.555Z,65.07
2018-06-13T22:16:58.054Z,66.88
2018-06-13T22:19:28.891Z,68.04
2018-06-13T22:22:04.154Z,69.36
2018-06-13T22:24:34.911Z,70.12
2018-06-13T22:27:06.039Z,69.83
2018-06-13T22:29:37.118Z,70.03
2018-06-13T22:32:08.250Z,69.86
2018-06-13T22:34:39.236Z,68.83
2018-06-13T22:37:10.431Z,69.97
2018-06-13T22:39:41.343Z,69.32
2018-06-13T22:42:12.122Z,68.43
2018-06-13T22:44:43.060Z,68.38
2018-06-13T22:47:13.964Z,68.50
2018-06-13T22:49:44.720Z,68.47
2018-06-13T22:52:15.687Z,68.23
2018-06-13T22:54:46.665Z,68.04
2018-06-13T22:57:17.701Z,67.18
2018-06-13T22:59:48.678Z,66.88
2018-06-13T23:02:19.713Z,67.21
2018-06-13T23:04:51.567Z,66.10
2018-06-13T23:07:22.636Z,66.46
2018-06-13T23:09:53.636Z,66.79
2018-06-13T23:12:24.514Z,66.72
2018-06-13T23:14:55.351Z,66.41
2018-06-13T23:17:26.475Z,66.81
2018-06-13T23:19:57.223Z,66.18
2018-06-13T23:22:29.809Z,65.34
2018-06-13T23:25:00.842Z,65.33
2018-06-13T23:27:31.980Z,65.34
2018-06-13T23:30:03.133Z,66.23
2018-06-13T23:32:35.263Z,65.08
2018-06-13T23:35:06.918Z,65.71
2018-06-13T23:37:37.585Z,66.20
2018-06-13T23:40:08.660Z,65.41
2018-06-13T23:42:41.799Z,64.22
2018-06-13T23:45:12.901Z,64.36
2018-06-13T23:47:43.975Z,64.32
2018-06-13T23:50:15.184Z,65.00
2018-06-13T23:52:46.249Z,66.32
2018-06-13T23:55:17.295Z,67.92
2018-06-13T23:57:50.990Z,69.03
